WetterOnline ( https://www.wetteronline.de )

Wetter aktuell Fambach

Aktuelles Wetter: Meiningen (453m)

6-stündlich | Neueste Meldungen
Ortszeit Temperatur Wetter
Mo, 22.07. 8:00 17.9° C leichter Regen
Mo, 22.07. 2:00 19.0° C bewölkt
So, 21.07. 20:00 23.5° C wolkig
So, 21.07. 14:00 25.4° C bedeckt
So, 21.07. 8:00 19.8° C leicht bewölkt
So, 21.07. 2:00 18.2° C wolkenlos
Sa, 20.07. 20:00 26.9° C wolkenlos
Sa, 20.07. 14:00 28.1° C leicht bewölkt
Ortszeit Temperatur Wetter
Mo, 22.07. 10:30 19.5° C bewölkt
Mo, 22.07. 10:20 19.5° C bewölkt
Mo, 22.07. 10:10 19.0° C bewölkt
Mo, 22.07. 10:00 18.5° C bedeckt
Mo, 22.07. 9:50 18.5° C bedeckt
Mo, 22.07. 9:40 18.3° C bedeckt
Mo, 22.07. 9:30 17.8° C bewölkt
Mo, 22.07. 9:00 18.0° C leichter Regen
Mo, 22.07. 8:30 17.8° C bewölkt
Mo, 22.07. 8:00 17.9° C leichter Regen
Mo, 22.07. 7:30 17.7° C wolkig
Ortszeit Relative Feuchte Sichtweite
Mo, 22.07. 8:00 86% 19 km
Mo, 22.07. 2:00 87% 60 km
So, 21.07. 20:00 71% 65 km
So, 21.07. 14:00 62% 45 km
So, 21.07. 8:00 78% 40 km
So, 21.07. 2:00 81% 40 km
Sa, 20.07. 20:00 46% 45 km
Sa, 20.07. 14:00 40% 55 km
Ortszeit Relative Feuchte Sichtweite
Mo, 22.07. 10:30 76% 40 km
Mo, 22.07. 10:20 76% -
Mo, 22.07. 10:10 79% -
Mo, 22.07. 10:00 82% 40 km
Mo, 22.07. 9:50 82% -
Mo, 22.07. 9:40 83% -
Mo, 22.07. 9:30 87% 35 km
Mo, 22.07. 9:00 88% 15 km
Mo, 22.07. 8:30 89% 21 km
Mo, 22.07. 8:00 86% 19 km
Mo, 22.07. 7:30 90% 26 km
Ortszeit Niederschlagsmenge Niederschlagsart
Mo, 22.07. 8:00 0.1 l/m2 in 12 Std. Regen
Mo, 22.07. 2:00 0.0 l/m2 in 6 Std. -
So, 21.07. 20:00 0.1 l/m2 in 12 Std. Regen
So, 21.07. 14:00 0.0 l/m2 in 6 Std. -
So, 21.07. 8:00 0.0 l/m2 in 12 Std. -
So, 21.07. 2:00 0.0 l/m2 in 6 Std. -
Sa, 20.07. 20:00 0.0 l/m2 in 12 Std. -
Sa, 20.07. 14:00 0.0 l/m2 in 6 Std. -
Ortszeit Niederschlagsmenge Niederschlagsart
Mo, 22.07. 10:30 0.0 l/m2 in 30 Min -
Mo, 22.07. 10:20 keine Meldung -
Mo, 22.07. 10:10 keine Meldung -
Mo, 22.07. 10:00 <0.05 l/m2 in 1 Std. Regen
Mo, 22.07. 9:50 keine Meldung -
Mo, 22.07. 9:40 keine Meldung -
Mo, 22.07. 9:30 <0.05 l/m2 in 30 Min Schneeregen
Mo, 22.07. 9:00 <0.05 l/m2 in 1 Std. Regen
Mo, 22.07. 8:30 <0.05 l/m2 in 30 Min Schneeregen
Mo, 22.07. 8:00 <0.05 l/m2 in 1 Std. Regen
Mo, 22.07. 7:30 0.0 l/m2 in 30 Min -
Ortszeit Stärke Spitze Richtung
km/h Bft. km/h Grad Sektor
Mo, 22.07. 8:00 7 2 25 340° N
Mo, 22.07. 2:00 6 1 24 320° NW
So, 21.07. 20:00 6 1 30 150° SO
So, 21.07. 14:00 13 3 28 210° SW
So, 21.07. 8:00 7 2 13 170° S
So, 21.07. 2:00 7 2 25 150° SO
Sa, 20.07. 20:00 4 1 25 190° S
Sa, 20.07. 14:00 11 2 22 200° S
Ortszeit Stärke Spitze Richtung
km/h Bft. km/h Grad Sektor
Mo, 22.07. 10:30 9 2 15 310° NW
Mo, 22.07. 10:20 9 2 - 310° NW
Mo, 22.07. 10:10 7 2 - 260° W
Mo, 22.07. 10:00 7 2 11 310° NW
Mo, 22.07. 9:50 7 2 - 310° NW
Mo, 22.07. 9:40 7 2 - 320° NW
Mo, 22.07. 9:30 7 2 11 300° NW
Mo, 22.07. 9:00 7 2 14 340° N
Mo, 22.07. 8:30 7 2 11 10° N
Mo, 22.07. 8:00 7 2 11 340° N
Mo, 22.07. 7:30 6 1 11 350° N
Ortszeit Untergrenze Bedeckung Gattung
total tief tief mittel hoch
Mo, 22.07. 8:00 630 m 7/8 4/8 - - -
Mo, 22.07. 2:00 2100 m 8/8 5/8 - - -
So, 21.07. 20:00 1320 m 7/8 5/8 - - -
So, 21.07. 14:00 3000 m 8/8 8/8 - - -
So, 21.07. 8:00 7200 m 3/8 0/8 - - -
So, 21.07. 2:00 - 0/8 0/8 - - -
Sa, 20.07. 20:00 - 0/8 0/8 - - -
Sa, 20.07. 14:00 1500 m 2/8 2/8 - - -
Ortszeit Bedeckungsgrad in Achtel und Wolkenuntergrenze
Mo, 22.07. 10:30 1(540m) 5(1380m) 7(1500m)
Mo, 22.07. 10:20 1(540m) 5(1380m) 7(1500m)
Mo, 22.07. 10:10 7
Mo, 22.07. 10:00 6(1290m) 8(1500m)
Mo, 22.07. 9:50 6(1290m) 8(1500m)
Mo, 22.07. 9:40 8
Mo, 22.07. 9:30 3(240m) 5(1350m) 7(1500m)
Mo, 22.07. 9:00 3(270m) 6(1110m) 7(1500m)
Mo, 22.07. 8:30 2(270m) 7(690m) 7(1800m)
Mo, 22.07. 8:00 4(630m) 7(3300m) 7(3900m)
Mo, 22.07. 7:30 3(1800m) 8(3900m)
Ortszeit Luftdruck NN (hPa) Tendenz (hPa in 3 Std.)
Mo, 22.07. 8:00 1014 + 1,6
Mo, 22.07. 2:00 1012 + 1,2
So, 21.07. 20:00 1008 + 0,5
So, 21.07. 14:00 1007 0,0
So, 21.07. 8:00 1008 + 0,2
So, 21.07. 2:00 1009 - 0,2
Sa, 20.07. 20:00 1007 - 0,7
Sa, 20.07. 14:00 1010 - 0,9
Ortszeit Luftdruck NN (hPa) Tendenz (hPa in 3 Std.)
Mo, 22.07. 10:30 1015 + 1,5
Mo, 22.07. 10:20 1015 keine Meldung
Mo, 22.07. 10:10 1015 keine Meldung
Mo, 22.07. 10:00 1015 + 1,5
Mo, 22.07. 9:50 1015 keine Meldung
Mo, 22.07. 9:40 1015 keine Meldung
Mo, 22.07. 9:30 1015 + 1,8
Mo, 22.07. 9:00 1015 + 1,8
Mo, 22.07. 8:30 1015 + 1,7
Mo, 22.07. 8:00 1014 + 1,6
Mo, 22.07. 7:30 1014 + 1,5
Ortszeit Schneehöhe (cm)
Mo, 22.07. 8:00 0
Mo, 22.07. 2:00 0
So, 21.07. 20:00 0
So, 21.07. 14:00 0
So, 21.07. 8:00 0
So, 21.07. 2:00 0
Sa, 20.07. 20:00 0
Sa, 20.07. 14:00 0
Ortszeit Schneehöhe (cm)
Mo, 22.07. 10:30 0
Mo, 22.07. 10:20 0
Mo, 22.07. 10:10 -
Mo, 22.07. 10:00 0
Mo, 22.07. 9:50 0
Mo, 22.07. 9:40 -
Mo, 22.07. 9:30 0
Mo, 22.07. 9:00 0
Mo, 22.07. 8:30 0
Mo, 22.07. 8:00 0
Mo, 22.07. 7:30 0
Link zu dieser Seite / Seite empfehlen

Das Wetter in ...